createdAt,value
2023-12-18T00:00:56.044Z,56.65918
2023-12-18T00:01:54.953Z,56.90332
2023-12-18T00:02:56.000Z,56.80957
2023-12-18T00:03:55.023Z,56.31543
2023-12-18T00:04:56.011Z,56.52051
2023-12-18T00:05:55.958Z,56.60352
2023-12-18T00:06:58.232Z,57.12695
2023-12-18T00:07:55.023Z,56.64063
2023-12-18T00:08:55.017Z,56.74023
2023-12-18T00:09:55.968Z,56.63574
2023-12-18T00:10:56.000Z,56.4873
2023-12-18T00:11:56.037Z,56.78223
2023-12-18T00:12:55.023Z,56.52051
2023-12-18T00:13:54.989Z,56.7207
2023-12-18T00:14:55.991Z,56.61719
2023-12-18T00:15:55.990Z,56.70508
2023-12-18T00:16:56.074Z,56.72559
2023-12-18T00:17:55.146Z,56.46289
2023-12-18T00:18:59.428Z,56.66895
2023-12-18T00:19:54.984Z,56.48535
2023-12-18T00:20:56.006Z,56.32129
2023-12-18T00:21:56.028Z,56.03711
2023-12-18T00:22:54.999Z,55.92578
2023-12-18T00:23:55.989Z,55.74414
2023-12-18T00:24:55.055Z,55.84863
2023-12-18T00:25:56.039Z,55.54492
2023-12-18T00:26:56.059Z,55.78516
2023-12-18T00:27:55.093Z,55.64453
2023-12-18T00:28:56.042Z,55.49902
2023-12-18T00:29:55.059Z,55.19238
2023-12-18T00:30:56.129Z,55.24414
2023-12-18T00:31:56.083Z,55.51172
2023-12-18T00:32:55.129Z,55.48242
2023-12-18T00:33:56.164Z,55.29883
2023-12-18T00:34:55.081Z,55.03027
2023-12-18T00:35:56.067Z,54.61133
2023-12-18T00:36:55.074Z,55.2373
2023-12-18T00:37:55.080Z,55.30469
2023-12-18T00:38:56.111Z,55.36816
2023-12-18T00:39:55.054Z,55.0332
2023-12-18T00:40:56.071Z,54.92969
2023-12-18T00:41:55.047Z,55.46094
2023-12-18T00:42:55.094Z,55.35645
2023-12-18T00:43:56.104Z,55.46777
2023-12-18T00:44:55.052Z,55.12012
2023-12-18T00:45:56.084Z,55.05371
2023-12-18T00:46:55.113Z,55.17773
2023-12-18T00:47:59.486Z,55.46973
2023-12-18T00:48:55.188Z,55.44238
2023-12-18T00:49:55.232Z,55.34961
2023-12-18T00:50:56.106Z,55.43262
2023-12-18T00:51:55.066Z,54.98438
2023-12-18T00:52:56.061Z,54.84473
2023-12-18T00:53:55.066Z,54.88379
2023-12-18T00:54:55.114Z,54.82227
2023-12-18T00:55:56.114Z,54.44434
2023-12-18T00:56:55.071Z,54.55469
2023-12-18T00:57:56.115Z,54.4834
2023-12-18T00:58:55.076Z,54.45605
2023-12-18T00:59:55.115Z,54.43066
2023-12-18T01:00:56.229Z,54.10254
2023-12-18T01:01:55.088Z,54.58594
2023-12-18T01:02:56.159Z,54.46777
2023-12-18T01:03:55.224Z,54.08398
2023-12-18T01:04:56.132Z,54.14551
2023-12-18T01:05:56.159Z,53.92676
2023-12-18T01:06:55.136Z,54.54785
2023-12-18T01:07:56.146Z,54.66504
2023-12-18T01:08:55.106Z,54.34277
2023-12-18T01:09:56.152Z,54.24609
2023-12-18T01:10:56.138Z,55.04199
2023-12-18T01:11:55.156Z,55.20898
2023-12-18T01:12:56.176Z,55.41602
2023-12-18T01:13:55.155Z,55.45117
2023-12-18T01:14:56.174Z,55.05371
2023-12-18T01:15:56.166Z,54.63379
2023-12-18T01:16:59.470Z,54.96875
2023-12-18T01:17:55.184Z,54.93359
2023-12-18T01:18:55.246Z,54.73047
2023-12-18T01:19:56.229Z,54.82129
2023-12-18T01:20:56.163Z,55.20605
2023-12-18T01:21:56.117Z,55.89453
2023-12-18T01:23:02.169Z,55.42383
2023-12-18T01:23:55.175Z,55.45508
2023-12-18T01:24:56.178Z,55.20801
2023-12-18T01:25:56.148Z,55.13477
2023-12-18T01:26:56.159Z,55.58203
2023-12-18T01:27:55.222Z,54.73828
2023-12-18T01:28:55.144Z,54.56836
2023-12-18T01:29:56.186Z,54.72363
2023-12-18T01:30:56.276Z,54.88184
2023-12-18T01:31:56.192Z,55.05078
2023-12-18T01:32:55.268Z,54.7041
2023-12-18T01:33:56.268Z,54.65918
2023-12-18T01:34:55.159Z,54.88184
2023-12-18T01:35:56.204Z,54.80859
2023-12-18T01:36:56.223Z,54.90234
2023-12-18T01:37:55.213Z,54.99023
2023-12-18T01:38:56.230Z,54.9248
2023-12-18T01:39:55.205Z,54.9082
2023-12-18T01:40:56.215Z,54.7666
2023-12-18T01:41:56.219Z,55.04004
2023-12-18T01:42:55.230Z,54.74219
2023-12-18T01:43:56.222Z,55.32813
2023-12-18T01:44:55.227Z,55.20605
2023-12-18T01:46:00.809Z,54.75293
2023-12-18T01:46:55.187Z,55.15039
2023-12-18T01:47:55.314Z,55.03223
2023-12-18T01:48:56.308Z,55.10449
2023-12-18T01:49:55.215Z,55.2334
2023-12-18T01:50:56.232Z,55.56445
2023-12-18T01:51:55.235Z,55.19531
2023-12-18T01:52:55.247Z,55.27832
2023-12-18T01:53:56.220Z,55.0498
2023-12-18T01:54:55.234Z,55.26074
2023-12-18T01:55:56.226Z,54.97266
2023-12-18T01:56:55.237Z,54.95215
2023-12-18T01:57:55.269Z,55.06641
2023-12-18T01:58:56.248Z,54.91406
2023-12-18T01:59:55.247Z,54.82422
2023-12-18T02:00:56.489Z,54.65918
2023-12-18T02:01:55.231Z,54.97656
2023-12-18T02:02:56.296Z,54.95703
2023-12-18T02:03:55.342Z,54.58984
2023-12-18T02:04:55.295Z,54.54199
2023-12-18T02:05:56.214Z,54.43457
2023-12-18T02:06:55.268Z,54.77734
2023-12-18T02:07:56.260Z,54.3418
2023-12-18T02:08:55.276Z,54.44043
2023-12-18T02:09:55.276Z,54.52441
2023-12-18T02:10:56.255Z,54.8291
2023-12-18T02:11:55.269Z,54.5166
2023-12-18T02:12:56.287Z,54.1748
2023-12-18T02:13:55.291Z,54.8623
2023-12-18T02:14:59.713Z,54.21973
2023-12-18T02:15:56.281Z,53.47754
2023-12-18T02:16:55.289Z,53.80371
2023-12-18T02:17:56.342Z,54.59082
2023-12-18T02:18:55.356Z,54.15332
2023-12-18T02:20:03.536Z,53.87109
2023-12-18T02:20:56.313Z,54.24414
2023-12-18T02:21:55.260Z,53.86816
2023-12-18T02:22:56.305Z,54.18066
2023-12-18T02:23:55.336Z,54.22461
2023-12-18T02:24:56.265Z,54.25781
2023-12-18T02:25:56.265Z,54.0957
2023-12-18T02:26:55.312Z,54.24707
2023-12-18T02:27:56.277Z,54.72266
2023-12-18T02:28:55.308Z,54.43555
2023-12-18T02:29:56.310Z,54.05078
2023-12-18T02:31:08.304Z,54.01563
2023-12-18T02:31:58.534Z,53.93262
2023-12-18T02:32:55.404Z,54.16992
2023-12-18T02:33:55.451Z,54.59766
2023-12-18T02:34:56.388Z,54.28418
2023-12-18T02:35:56.317Z,53.85156
2023-12-18T02:36:56.280Z,54.32617
2023-12-18T02:37:55.356Z,54.09668
2023-12-18T02:38:55.314Z,53.51074
2023-12-18T02:39:56.323Z,53.89746
2023-12-18T02:40:56.776Z,54.00195
2023-12-18T02:41:56.361Z,54.32129
2023-12-18T02:42:55.351Z,54.43457
2023-12-18T02:43:59.640Z,53.65918
2023-12-18T02:44:55.330Z,54.17676
2023-12-18T02:45:56.330Z,54.03613
2023-12-18T02:46:56.363Z,54.01953
2023-12-18T02:47:55.432Z,53.99023
2023-12-18T02:48:56.401Z,54.34668
2023-12-18T02:49:55.330Z,54.48633
2023-12-18T02:50:56.356Z,54.82031
2023-12-18T02:51:56.358Z,54.98242
2023-12-18T02:52:55.365Z,54.6123
2023-12-18T02:53:56.389Z,54.4082
2023-12-18T02:54:55.378Z,54.44629
2023-12-18T02:55:56.337Z,54.10547
2023-12-18T02:56:56.390Z,54.66895
2023-12-18T02:57:55.338Z,55.06836
2023-12-18T02:58:56.379Z,54.51855
2023-12-18T02:59:55.333Z,54.0166
2023-12-18T03:01:00.056Z,54.17188
2023-12-18T03:01:55.339Z,54.05762
2023-12-18T03:02:55.421Z,53.875
2023-12-18T03:03:56.539Z,54.42188
2023-12-18T03:04:55.435Z,54.52832
2023-12-18T03:05:56.474Z,54.31738
2023-12-18T03:06:55.354Z,54.00977
2023-12-18T03:07:55.374Z,54.18848
2023-12-18T03:08:56.378Z,54.91699
2023-12-18T03:09:55.392Z,54.94922
2023-12-18T03:10:56.383Z,54.86719
2023-12-18T03:11:55.361Z,54.84668
2023-12-18T03:12:59.644Z,55.04395
2023-12-18T03:13:55.398Z,54.84082
2023-12-18T03:14:55.411Z,55.00391
2023-12-18T03:15:56.369Z,55.02051
2023-12-18T03:16:55.414Z,54.94434
2023-12-18T03:17:56.478Z,54.9873
2023-12-18T03:18:55.484Z,54.73047
2023-12-18T03:19:55.381Z,54.5498
2023-12-18T03:20:56.409Z,54.72363
2023-12-18T03:21:55.420Z,54.59863
2023-12-18T03:22:56.384Z,55.20898
2023-12-18T03:23:55.430Z,55.76172
2023-12-18T03:24:55.484Z,55.61426
2023-12-18T03:25:56.447Z,55.15723
2023-12-18T03:26:55.402Z,55.5332
2023-12-18T03:27:56.481Z,55.6084
2023-12-18T03:28:55.401Z,55.71094
2023-12-18T03:29:56.430Z,55.53613
2023-12-18T03:30:56.481Z,55.46094
2023-12-18T03:31:55.410Z,55.01855
2023-12-18T03:32:56.464Z,55.08789
2023-12-18T03:33:55.452Z,55.79688
2023-12-18T03:34:56.405Z,55.11426
2023-12-18T03:35:56.438Z,55.02051
2023-12-18T03:36:55.472Z,55.07715
2023-12-18T03:37:56.456Z,55.29883
2023-12-18T03:38:55.421Z,55.23438
2023-12-18T03:39:56.456Z,55.18164
2023-12-18T03:40:56.406Z,55.39746
2023-12-18T03:42:03.959Z,55.56934
2023-12-18T03:42:55.419Z,55.33691
2023-12-18T03:43:55.465Z,55.22461
2023-12-18T03:44:56.492Z,55.63184
2023-12-18T03:45:56.429Z,55.49316
2023-12-18T03:46:56.475Z,55.26074
2023-12-18T03:47:55.531Z,55.56641
2023-12-18T03:48:55.544Z,55.60156
2023-12-18T03:49:56.466Z,55.39551
2023-12-18T03:50:56.491Z,55.7334
2023-12-18T03:51:56.480Z,55.80469
2023-12-18T03:52:55.502Z,55.12207
2023-12-18T03:53:55.454Z,55.15332
2023-12-18T03:54:56.451Z,55.74902
2023-12-18T03:55:56.494Z,55.62402
2023-12-18T03:56:56.481Z,55.68164
2023-12-18T03:57:55.587Z,55.65332
2023-12-18T03:58:56.452Z,55.1543
2023-12-18T03:59:55.506Z,55.72852
2023-12-18T04:00:56.546Z,55.625
2023-12-18T04:01:56.517Z,55.61328
2023-12-18T04:02:55.528Z,55.7627
2023-12-18T04:03:56.551Z,55.5791
2023-12-18T04:04:55.564Z,55.57227
2023-12-18T04:05:56.503Z,55.73633
2023-12-18T04:06:56.479Z,55.25684
2023-12-18T04:07:55.516Z,55.58008
2023-12-18T04:08:56.519Z,55.75879
2023-12-18T04:09:55.505Z,55.34668
2023-12-18T04:10:59.819Z,55.09863
2023-12-18T04:11:55.542Z,55.18164
2023-12-18T04:12:55.532Z,55.13184
2023-12-18T04:13:56.513Z,54.8291
2023-12-18T04:14:55.539Z,54.8125
2023-12-18T04:15:58.949Z,54.37988
2023-12-18T04:16:55.485Z,54.7168
2023-12-18T04:17:55.638Z,54.85938
2023-12-18T04:18:56.622Z,54.88379
2023-12-18T04:19:55.508Z,54.74414
2023-12-18T04:20:56.505Z,54.69336
2023-12-18T04:21:55.557Z,54.87012
2023-12-18T04:22:55.558Z,55.21973
2023-12-18T04:23:56.613Z,54.78906
2023-12-18T04:24:55.597Z,54.98926
2023-12-18T04:25:56.570Z,55.13379
2023-12-18T04:26:55.561Z,55.83496
2023-12-18T04:27:56.687Z,56.29492
2023-12-18T04:28:55.549Z,55.63867
2023-12-18T04:29:55.579Z,55.53613
2023-12-18T04:30:56.645Z,55.6875
2023-12-18T04:31:55.536Z,56.10254
2023-12-18T04:32:56.658Z,55.31055
2023-12-18T04:33:55.680Z,55.47949
2023-12-18T04:34:55.540Z,55.72852
2023-12-18T04:35:56.571Z,56.17285
2023-12-18T04:36:55.748Z,56.21875
2023-12-18T04:37:56.628Z,55.63574
2023-12-18T04:38:55.532Z,55.375
2023-12-18T04:39:59.844Z,55.47168
2023-12-18T04:40:56.570Z,55.36621
2023-12-18T04:41:55.595Z,55.69043
2023-12-18T04:42:56.626Z,56.07617
2023-12-18T04:43:55.542Z,55.96289
2023-12-18T04:44:56.548Z,55.48242
2023-12-18T04:45:56.546Z,55.16992
2023-12-18T04:46:55.602Z,55.67383
2023-12-18T04:47:56.643Z,55.82227
2023-12-18T04:48:55.766Z,56.48828
2023-12-18T04:49:56.605Z,56.24219
2023-12-18T04:50:56.612Z,55.80176
2023-12-18T04:51:55.703Z,55.98047
2023-12-18T04:52:56.592Z,55.95117
2023-12-18T04:53:55.613Z,56.26758
2023-12-18T04:54:56.614Z,55.76563
2023-12-18T04:55:56.604Z,55.56934
2023-12-18T04:56:58.936Z,55.55859
2023-12-18T04:57:55.612Z,55.8584
2023-12-18T04:58:55.627Z,55.22559
2023-12-18T04:59:56.649Z,55.07715
2023-12-18T05:01:07.195Z,55.4502
2023-12-18T05:01:56.619Z,55.72852
2023-12-18T05:02:55.643Z,55.74219
2023-12-18T05:03:55.708Z,55.79688
2023-12-18T05:04:56.716Z,56.15723
2023-12-18T05:05:56.634Z,55.86914
2023-12-18T05:06:56.604Z,56.16992
2023-12-18T05:07:55.668Z,55.74414
2023-12-18T05:08:59.922Z,55.72363
2023-12-18T05:09:55.709Z,55.7627
2023-12-18T05:10:56.618Z,55.83496
2023-12-18T05:11:56.665Z,56.76563
2023-12-18T05:12:55.669Z,57.03027
2023-12-18T05:13:56.611Z,56.58496
2023-12-18T05:14:55.652Z,56.47461
2023-12-18T05:15:56.717Z,56.44824
2023-12-18T05:16:56.658Z,57.01465
2023-12-18T05:17:55.698Z,56.31641
2023-12-18T05:18:56.730Z,57.05957
2023-12-18T05:19:55.633Z,56.41602
2023-12-18T05:20:56.666Z,56.23438
2023-12-18T05:21:56.708Z,56.4541
2023-12-18T05:22:55.681Z,56.62598
2023-12-18T05:23:56.635Z,56.14844
2023-12-18T05:24:55.684Z,56.00684
2023-12-18T05:26:16.063Z,56.01563
2023-12-18T05:26:55.648Z,56.23047
2023-12-18T05:27:55.700Z,56.0791
2023-12-18T05:28:56.665Z,55.8877
2023-12-18T05:29:55.647Z,56.20313
2023-12-18T05:30:56.755Z,55.78027
2023-12-18T05:31:55.665Z,55.88086
2023-12-18T05:32:55.715Z,55.89258
2023-12-18T05:33:56.840Z,55.34082
2023-12-18T05:34:55.684Z,56.1748
2023-12-18T05:35:56.723Z,56.94434
2023-12-18T05:36:55.692Z,56.80078
2023-12-18T05:38:00.003Z,56.37305
2023-12-18T05:38:55.717Z,56.32422
2023-12-18T05:39:55.720Z,56.4209
2023-12-18T05:40:56.699Z,56.68359
2023-12-18T05:41:55.697Z,56.48828
2023-12-18T05:42:56.758Z,56.53711
2023-12-18T05:43:55.690Z,56.12988
2023-12-18T05:44:55.708Z,56.19629
2023-12-18T05:45:56.712Z,55.91113
2023-12-18T05:46:55.687Z,56.06543
2023-12-18T05:47:56.761Z,56.10254
2023-12-18T05:48:55.811Z,56.35645
2023-12-18T05:49:55.817Z,56.19727
2023-12-18T05:50:56.721Z,56.09375
2023-12-18T05:51:55.694Z,55.86621
2023-12-18T05:52:56.707Z,55.7959
2023-12-18T05:53:55.691Z,56.02051
2023-12-18T05:54:56.735Z,56.05566
2023-12-18T05:55:56.745Z,56.32031
2023-12-18T05:56:55.756Z,56.28223
2023-12-18T05:57:56.722Z,55.83594
2023-12-18T05:58:55.718Z,56.20898
2023-12-18T05:59:56.731Z,55.90039
2023-12-18T06:00:59.537Z,55.99316
2023-12-18T06:01:55.723Z,56.10938
2023-12-18T06:02:56.710Z,56.10059
2023-12-18T06:03:55.896Z,56.17871
2023-12-18T06:04:56.770Z,56.31738
2023-12-18T06:05:56.866Z,56.51465
2023-12-18T06:07:00.059Z,56.5459
2023-12-18T06:07:55.726Z,56.4043
2023-12-18T06:08:55.803Z,55.98633
2023-12-18T06:09:56.778Z,56.38184
2023-12-18T06:10:56.759Z,56.40918
2023-12-18T06:11:56.751Z,56.50781
2023-12-18T06:12:55.885Z,56.83203
2023-12-18T06:13:55.749Z,57.125
2023-12-18T06:14:56.777Z,57.12598
2023-12-18T06:15:56.806Z,57.24023
2023-12-18T06:16:56.791Z,57.52441
2023-12-18T06:17:55.861Z,57.13379
2023-12-18T06:18:55.888Z,57.0332
2023-12-18T06:19:56.789Z,57.3418
2023-12-18T06:20:56.767Z,57.4541
2023-12-18T06:21:56.842Z,57.24805
2023-12-18T06:22:55.764Z,57.19531
2023-12-18T06:23:56.791Z,57.41211
2023-12-18T06:24:55.811Z,57.87305
2023-12-18T06:25:57.463Z,57.60254
2023-12-18T06:26:56.765Z,57.57227
2023-12-18T06:27:55.808Z,57.78711
2023-12-18T06:28:56.762Z,57.80762
2023-12-18T06:29:55.821Z,58.06152
2023-12-18T06:30:56.845Z,57.88477
2023-12-18T06:31:56.846Z,57.82422
2023-12-18T06:32:55.839Z,57.36621
2023-12-18T06:33:57.022Z,57.47461
2023-12-18T06:34:55.985Z,57.20898
2023-12-18T06:36:00.107Z,57.10938
2023-12-18T06:36:55.782Z,57.23145
2023-12-18T06:37:55.845Z,57.26855
2023-12-18T06:38:56.867Z,57.28906
2023-12-18T06:39:55.836Z,57.38086
2023-12-18T06:40:56.825Z,58.08887
2023-12-18T06:41:55.843Z,58.10254
2023-12-18T06:42:55.909Z,57.82422
2023-12-18T06:43:56.869Z,57.58496
2023-12-18T06:44:55.849Z,57.67871
2023-12-18T06:45:56.825Z,57.54004
2023-12-18T06:46:55.816Z,57.61719
2023-12-18T06:47:55.980Z,57.56055
2023-12-18T06:48:56.956Z,57.52637
2023-12-18T06:49:55.829Z,57.44238
2023-12-18T06:50:56.840Z,57.45313
2023-12-18T06:51:55.858Z,57.42969
2023-12-18T06:53:00.190Z,57.58496
2023-12-18T06:53:55.863Z,57.60156
2023-12-18T06:54:55.871Z,57.41992
2023-12-18T06:55:56.868Z,57.38379
2023-12-18T06:56:55.888Z,57.44922
2023-12-18T06:57:56.898Z,57.37793
2023-12-18T06:58:55.891Z,57.42871
2023-12-18T06:59:55.835Z,57.53223
2023-12-18T07:00:56.936Z,57.54688
2023-12-18T07:01:55.890Z,57.7207
2023-12-18T07:02:56.916Z,57.42188
2023-12-18T07:03:55.874Z,57.72461
2023-12-18T07:05:04.398Z,57.94824
2023-12-18T07:05:56.896Z,57.2832
2023-12-18T07:06:55.903Z,57.85645
2023-12-18T07:07:56.918Z,57.71777
2023-12-18T07:08:55.926Z,57.64258
2023-12-18T07:09:56.994Z,58.20801
2023-12-18T07:10:56.876Z,58.08594
2023-12-18T07:11:55.868Z,58.21777
2023-12-18T07:12:56.951Z,57.82617
2023-12-18T07:13:55.862Z,57.9248
2023-12-18T07:14:56.910Z,57.64258
2023-12-18T07:15:56.909Z,58.07324
2023-12-18T07:16:55.923Z,58.27637
2023-12-18T07:17:56.999Z,58.08105
2023-12-18T07:18:55.986Z,57.99609
2023-12-18T07:19:56.883Z,58.07715
2023-12-18T07:20:56.878Z,58.20801
2023-12-18T07:21:56.896Z,58.47754
2023-12-18T07:22:55.930Z,58.11621
2023-12-18T07:23:55.895Z,58.0332
2023-12-18T07:24:56.885Z,58.22266
2023-12-18T07:26:07.872Z,58.85352
2023-12-18T07:26:56.911Z,59.00293
2023-12-18T07:27:55.892Z,58.84668
2023-12-18T07:28:55.946Z,59.11914
2023-12-18T07:29:56.950Z,59.01074
2023-12-18T07:30:56.987Z,58.83301
2023-12-18T07:31:56.907Z,59.31738
2023-12-18T07:32:56.046Z,59.39746
2023-12-18T07:34:00.422Z,59.19141
2023-12-18T07:34:56.036Z,59.19531
2023-12-18T07:35:56.914Z,59.17383
2023-12-18T07:36:56.916Z,59.3457
2023-12-18T07:37:55.961Z,59.27637
2023-12-18T07:38:56.994Z,59.35449
2023-12-18T07:39:55.966Z,59.98633
2023-12-18T07:40:56.970Z,59.71777
2023-12-18T07:41:56.938Z,60.01953
2023-12-18T07:42:56.052Z,59.92285
2023-12-18T07:43:56.997Z,59.7998
2023-12-18T07:44:55.970Z,59.85449
2023-12-18T07:45:57.045Z,59.88574
2023-12-18T07:46:56.941Z,60.30176
2023-12-18T07:47:56.040Z,60.26367
2023-12-18T07:48:57.134Z,60.28223
2023-12-18T07:49:56.055Z,60.35156
2023-12-18T07:50:56.948Z,60.73633
2023-12-18T07:51:55.944Z,61.21484
2023-12-18T07:52:55.995Z,60.69141
2023-12-18T07:53:56.990Z,61.0166
2023-12-18T07:54:55.994Z,60.87891
2023-12-18T07:55:56.973Z,60.55957
2023-12-18T07:56:55.951Z,60.90723
2023-12-18T07:57:56.008Z,61.27441
2023-12-18T07:58:56.987Z,61.21387
2023-12-18T07:59:56.004Z,61.05273
2023-12-18T08:00:57.091Z,60.91016
2023-12-18T08:01:55.958Z,60.88867
2023-12-18T08:03:01.142Z,60.94141
2023-12-18T08:03:56.064Z,61.17871
2023-12-18T08:04:55.992Z,60.98926
2023-12-18T08:05:56.987Z,61.04199
2023-12-18T08:06:55.979Z,60.95215
2023-12-18T08:07:57.034Z,61.10547
2023-12-18T08:08:56.031Z,60.88965
2023-12-18T08:09:56.036Z,60.77539
2023-12-18T08:10:56.998Z,61.49121
2023-12-18T08:11:56.030Z,61.55176
2023-12-18T08:12:57.032Z,61.79102
2023-12-18T08:13:56.005Z,61.62793
2023-12-18T08:14:56.033Z,61.70117
2023-12-18T08:15:57.022Z,61.63672
2023-12-18T08:16:56.001Z,61.58887
2023-12-18T08:17:57.121Z,62.05078
2023-12-18T08:18:56.108Z,61.94629
2023-12-18T08:19:57.015Z,61.74805
2023-12-18T08:20:57.070Z,61.82031
2023-12-18T08:21:56.110Z,61.97754
2023-12-18T08:22:57.046Z,61.94043
2023-12-18T08:23:56.070Z,61.63086
2023-12-18T08:24:57.006Z,61.72266
2023-12-18T08:25:57.024Z,61.56738
2023-12-18T08:26:56.064Z,61.62598
2023-12-18T08:27:57.124Z,61.75391
2023-12-18T08:28:56.024Z,61.7334
2023-12-18T08:29:57.070Z,61.58496
2023-12-18T08:30:57.116Z,61.76563
2023-12-18T08:32:00.488Z,61.93164
2023-12-18T08:32:56.032Z,62.00488
2023-12-18T08:33:56.206Z,62.09961
2023-12-18T08:34:57.096Z,61.97363
2023-12-18T08:35:57.052Z,61.96582
2023-12-18T08:36:57.028Z,62.12891
2023-12-18T08:37:56.090Z,62.03516
2023-12-18T08:38:56.086Z,61.91699
2023-12-18T08:39:57.171Z,61.92285
2023-12-18T08:41:08.894Z,62.00879
2023-12-18T08:41:57.049Z,62.81348
2023-12-18T08:42:56.121Z,62.93555
2023-12-18T08:44:03.121Z,62.54785
2023-12-18T08:44:58.226Z,62.39355
2023-12-18T08:45:57.078Z,62.10449
2023-12-18T08:46:57.108Z,62.09961
2023-12-18T08:47:56.230Z,62.25293
2023-12-18T08:49:09.130Z,62.23242
2023-12-18T08:49:56.082Z,61.8291
2023-12-18T08:50:57.109Z,61.77051
2023-12-18T08:51:57.159Z,62.15527
2023-12-18T08:52:56.075Z,61.9541
2023-12-18T08:53:57.084Z,61.96484
2023-12-18T08:54:56.125Z,62.50098
2023-12-18T08:55:57.099Z,62.22559
2023-12-18T08:56:57.152Z,62.3623
2023-12-18T08:57:56.132Z,62.23438
2023-12-18T08:58:57.223Z,62.3877
2023-12-18T08:59:56.096Z,62.53711
2023-12-18T09:01:00.590Z,62.32715
2023-12-18T09:01:56.100Z,62.37695
2023-12-18T09:02:56.150Z,62.83496
2023-12-18T09:03:57.278Z,62.53125
2023-12-18T09:04:56.102Z,62.6582
2023-12-18T09:05:57.132Z,62.63867
2023-12-18T09:06:56.145Z,62.86133
2023-12-18T09:07:56.105Z,62.79004
2023-12-18T09:08:57.175Z,62.76953
2023-12-18T09:09:56.167Z,62.64063
2023-12-18T09:10:57.115Z,62.84863
2023-12-18T09:11:56.157Z,63.00195
2023-12-18T09:12:56.198Z,63.05859
2023-12-18T09:13:57.147Z,63.05664
2023-12-18T09:14:56.164Z,62.7002
2023-12-18T09:15:57.157Z,62.50879
2023-12-18T09:16:56.138Z,62.59375
2023-12-18T09:17:59.439Z,62.66309
2023-12-18T09:18:56.161Z,62.55957
2023-12-18T09:19:56.167Z,62.3457
2023-12-18T09:20:57.158Z,62.16406
2023-12-18T09:21:56.203Z,62.42383
2023-12-18T09:22:57.165Z,62.27637
2023-12-18T09:23:56.183Z,62.11328
2023-12-18T09:24:56.217Z,62.5918
2023-12-18T09:25:57.168Z,62.55078
2023-12-18T09:26:56.140Z,62.83789
2023-12-18T09:27:57.202Z,62.83887
2023-12-18T09:28:56.179Z,62.71484
2023-12-18T09:30:00.503Z,62.36133
2023-12-18T09:30:57.260Z,62.18555
2023-12-18T09:31:56.184Z,62.20313
2023-12-18T09:32:57.244Z,62.44824
2023-12-18T09:33:56.289Z,62.46191
2023-12-18T09:34:57.335Z,62.42188
2023-12-18T09:35:58.770Z,62.58301
2023-12-18T09:36:56.229Z,62.72266
2023-12-18T09:37:57.192Z,62.47949
2023-12-18T09:38:56.199Z,62.33496
2023-12-18T09:39:57.236Z,62.33398
2023-12-18T09:40:57.253Z,62.30469
2023-12-18T09:41:56.227Z,62.10645
2023-12-18T09:42:57.270Z,61.60254
2023-12-18T09:43:56.189Z,61.39941
2023-12-18T09:44:57.198Z,61.35059
2023-12-18T09:45:57.271Z,61.34473
2023-12-18T09:46:57.184Z,61.27832
2023-12-18T09:47:56.271Z,61.29492
2023-12-18T09:48:56.253Z,61.56934
2023-12-18T09:49:57.266Z,61.58301
2023-12-18T09:50:57.205Z,61.4502
2023-12-18T09:51:57.268Z,61.56152
2023-12-18T09:52:56.206Z,61.42285
2023-12-18T09:53:56.255Z,61.23145
2023-12-18T09:54:57.237Z,60.89941
2023-12-18T09:55:57.202Z,60.83691
2023-12-18T09:56:57.206Z,61.40039
2023-12-18T09:57:56.248Z,61.2041
2023-12-18T09:59:03.104Z,60.7959
2023-12-18T09:59:56.206Z,60.82227
2023-12-18T10:00:57.303Z,60.65723
2023-12-18T10:01:57.224Z,60.86719
2023-12-18T10:02:56.301Z,60.93066
2023-12-18T10:03:57.557Z,60.96777
2023-12-18T10:04:56.217Z,60.97949
2023-12-18T10:05:57.256Z,61.02539
2023-12-18T10:06:57.277Z,61.05371
2023-12-18T10:07:56.223Z,61.49219
2023-12-18T10:08:57.280Z,61.54199
2023-12-18T10:09:56.325Z,61.2998
2023-12-18T10:10:57.218Z,61.22949
2023-12-18T10:11:57.293Z,61.2041
2023-12-18T10:12:56.344Z,61.49023
2023-12-18T10:13:57.295Z,61.60352
2023-12-18T10:14:56.287Z,61.52246
2023-12-18T10:15:57.417Z,61.44727
2023-12-18T10:16:56.249Z,61.61523
2023-12-18T10:17:56.326Z,61.43066
2023-12-18T10:18:57.307Z,61.54785
2023-12-18T10:19:56.269Z,61.55957
2023-12-18T10:20:57.307Z,61.36816
2023-12-18T10:21:56.287Z,61.41309
2023-12-18T10:22:56.252Z,61.22559
2023-12-18T10:23:57.335Z,61.08691
2023-12-18T10:24:56.294Z,60.80078
2023-12-18T10:25:57.312Z,60.88867
2023-12-18T10:26:56.305Z,60.93555
2023-12-18T10:28:00.657Z,61.10547
2023-12-18T10:28:56.274Z,61.08301
2023-12-18T10:29:56.338Z,61.39063
2023-12-18T10:30:57.364Z,61.23145
2023-12-18T10:31:56.302Z,61.47559
2023-12-18T10:32:57.419Z,61.71484
2023-12-18T10:33:56.415Z,61.53516
2023-12-18T10:34:56.284Z,61.52539
2023-12-18T10:35:57.313Z,61.27246
2023-12-18T10:36:56.314Z,61.36523
2023-12-18T10:37:57.407Z,61.22559
2023-12-18T10:38:56.293Z,60.73145
2023-12-18T10:39:56.364Z,61.25879
2023-12-18T10:40:57.389Z,61.39258
2023-12-18T10:41:56.356Z,61.20801
2023-12-18T10:42:57.364Z,61.08691
2023-12-18T10:43:56.308Z,61.05664
2023-12-18T10:44:59.141Z,60.90625
2023-12-18T10:45:57.371Z,60.98047
2023-12-18T10:46:56.331Z,61.09473
2023-12-18T10:47:57.358Z,61.22363
2023-12-18T10:48:56.406Z,61.00684
2023-12-18T10:49:57.388Z,60.94629
2023-12-18T10:50:57.361Z,60.83887
2023-12-18T10:51:56.324Z,61.03223
2023-12-18T10:52:57.314Z,61.06055
2023-12-18T10:53:56.317Z,61.06445
2023-12-18T10:54:57.384Z,61.26172
2023-12-18T10:55:57.353Z,61.34375
2023-12-18T10:57:00.892Z,61.60547
2023-12-18T10:57:56.330Z,61.49121
2023-12-18T10:58:56.336Z,61.13574
2023-12-18T10:59:57.392Z,61.20703
2023-12-18T11:01:07.968Z,61.11719
2023-12-18T11:01:57.373Z,61.27344
2023-12-18T11:02:56.462Z,61.27148
2023-12-18T11:03:56.524Z,61.31152
2023-12-18T11:04:57.403Z,61.29688
2023-12-18T11:05:57.405Z,61.34863
2023-12-18T11:06:57.528Z,61.55078
2023-12-18T11:07:56.356Z,61.69629
2023-12-18T11:08:56.361Z,61.70117
2023-12-18T11:09:57.458Z,61.77637
2023-12-18T11:10:57.374Z,61.76855
2023-12-18T11:11:57.399Z,62.03027
2023-12-18T11:12:56.412Z,61.88379
2023-12-18T11:14:12.103Z,61.5918
2023-12-18T11:14:56.458Z,61.87012
2023-12-18T11:15:57.412Z,61.91504
2023-12-18T11:16:57.417Z,61.93848
2023-12-18T11:17:56.541Z,61.95508
2023-12-18T11:19:08.488Z,61.8623
2023-12-18T11:19:57.466Z,62.01563
2023-12-18T11:20:57.384Z,61.94824
2023-12-18T11:21:57.396Z,62.1084
2023-12-18T11:22:56.421Z,62.11914
2023-12-18T11:24:04.510Z,61.97363
2023-12-18T11:24:57.459Z,62.02344
2023-12-18T11:26:04.664Z,61.88477
2023-12-18T11:26:56.423Z,62.31152
2023-12-18T11:27:56.556Z,62.25586
2023-12-18T11:28:57.439Z,62.08008
2023-12-18T11:29:56.449Z,61.9707
2023-12-18T11:30:57.470Z,61.94434
2023-12-18T11:31:56.417Z,62.12891
2023-12-18T11:32:56.491Z,62.37793
2023-12-18T11:33:57.611Z,62.21387
2023-12-18T11:34:56.487Z,61.94336
2023-12-18T11:35:58.649Z,61.93555
2023-12-18T11:36:56.526Z,62.14551
2023-12-18T11:37:56.427Z,62.09277
2023-12-18T11:38:57.410Z,62.29395
2023-12-18T11:39:56.481Z,62.04395
2023-12-18T11:40:57.462Z,61.93262
2023-12-18T11:41:56.457Z,62.17285
2023-12-18T11:42:57.539Z,62.33789
2023-12-18T11:43:56.431Z,61.97656
2023-12-18T11:44:56.502Z,61.79395
2023-12-18T11:46:03.584Z,61.79395
2023-12-18T11:46:57.442Z,61.76074